Time;durP1;ratioP1;P1;durP2;ratioP2;P2;SDS_P1;SDS_P2;PMS_P1;PMS_P2;Temp;Humidity;BMP_temperature;BMP_pressure;BME280_temperature;BME280_humidity;BME280_pressure;Samples;Min_cycle;Max_cycle;Signal;HPM_P1;HPM_P2
2022/10/11 00:02:41;;;;;;;33.38;20.23;;;;;;;6.62;94.79;99441.03;4243693;82;21108;-82
2022/10/11 00:08:43;;;;;;;44.65;22.35;;;;;;;6.71;95.29;99432.75;4233881;82;21082;-84
2022/10/11 00:14:44;;;;;;;41.58;21.40;;;;;;;6.88;95.63;99435.25;4233925;82;21073;-86
2022/10/11 00:20:46;;;;;;;43.63;22.25;;;;;;;6.97;95.44;99444.91;4227577;82;21044;-82
2022/10/11 00:26:47;;;;;;;46.30;23.67;;;;;;;6.99;95.52;99439.92;4235097;82;21500;-83
2022/10/11 00:32:49;;;;;;;44.18;22.90;;;;;;;6.98;95.47;99442.42;4229610;82;21056;-83
2022/10/11 00:38:51;;;;;;;38.48;21.75;;;;;;;6.98;95.74;99445.15;4207094;83;21074;-83
2022/10/11 00:45:15;;;;;;;39.15;20.27;;;;;;;7.01;96.14;99439.02;4208191;83;21101;-83
2022/10/11 00:51:32;;;;;;;41.18;22.22;;;;;;;7.07;96.33;99445.82;4202868;83;21046;-83
2022/10/11 00:57:39;;;;;;;38.05;20.30;;;;;;;7.18;96.88;99430.61;4210693;83;20966;-83
2022/10/11 01:03:41;;;;;;;40.58;21.73;;;;;;;7.18;96.88;99430.61;4209536;82;21077;-83
2022/10/11 01:09:42;;;;;;;41.05;23.22;;;;;;;7.27;96.56;99452.26;4117209;85;21090;-83
2022/10/11 01:16:11;;;;;;;45.08;23.10;;;;;;;7.32;96.57;99460.20;4212427;83;21034;-83
2022/10/11 01:22:42;;;;;;;37.00;22.55;;;;;;;7.35;96.50;99457.59;4205907;83;21057;-83
2022/10/11 01:29:11;;;;;;;41.85;22.22;;;;;;;7.35;96.33;99452.15;4218232;83;21973;-83
2022/10/11 01:35:36;;;;;;;39.33;23.55;;;;;;;7.27;96.14;99450.90;4150845;84;21067;-83
2022/10/11 01:41:43;;;;;;;41.45;23.95;;;;;;;7.17;96.51;99446.70;4073117;85;21010;-83
2022/10/11 01:47:44;;;;;;;38.95;22.77;;;;;;;7.21;96.72;99454.99;4247893;82;21073;-83
2022/10/11 01:53:51;;;;;;;42.90;24.55;;;;;;;7.20;96.75;99456.14;4247104;82;21011;-83
2022/10/11 02:00:18;;;;;;;45.50;26.25;;;;;;;7.20;96.78;99461.03;4149837;84;21038;-83
2022/10/11 02:06:40;;;;;;;45.23;25.45;;;;;;;7.12;96.68;99460.57;4083485;85;21103;-83
2022/10/11 02:12:50;;;;;;;39.53;22.10;;;;;;;7.03;96.46;99470.76;4093443;85;21106;-83
2022/10/11 02:18:55;;;;;;;39.63;23.92;;;;;;;7.05;97.07;99475.30;4232936;82;21038;-84
2022/10/11 02:25:01;;;;;;;40.90;22.95;;;;;;;6.94;96.87;99470.08;4245964;82;21988;-83
2022/10/11 02:31:05;;;;;;;39.65;23.95;;;;;;;6.93;96.69;99475.86;4120200;84;21109;-83
2022/10/11 02:37:46;;;;;;;42.15;23.98;;;;;;;6.75;96.87;99475.27;4152435;83;21000;-82
2022/10/11 02:43:59;;;;;;;42.88;22.87;;;;;;;6.82;97.76;99463.83;4143261;83;21035;-83
2022/10/11 02:50:02;;;;;;;43.42;23.45;;;;;;;6.88;98.12;99466.00;4152578;83;20998;-82
2022/10/11 02:56:04;;;;;;;44.53;25.77;;;;;;;7.01;98.24;99478.48;4149431;83;21503;-83
2022/10/11 03:02:05;;;;;;;44.27;24.10;;;;;;;7.11;98.31;99478.02;4130408;83;21451;-83
2022/10/11 03:08:13;;;;;;;40.43;25.10;;;;;;;7.14;98.22;99483.37;4177692;83;21600;-83
2022/10/11 03:14:14;;;;;;;41.15;24.27;;;;;;;7.20;98.38;99482.81;4161666;83;21041;-83
2022/10/11 03:20:16;;;;;;;38.90;23.42;;;;;;;7.24;98.33;99484.27;4151959;83;21585;-82
2022/10/11 03:26:17;;;;;;;41.80;22.90;;;;;;;7.30;98.46;99489.14;4159933;83;21005;-83
2022/10/11 03:32:18;;;;;;;38.70;23.38;;;;;;;7.35;98.49;99489.48;4161447;83;21042;-83
2022/10/11 03:38:21;;;;;;;38.58;24.07;;;;;;;7.40;98.39;99490.62;4104979;84;21762;-83
2022/10/11 03:44:22;;;;;;;40.98;21.57;;;;;;;7.39;98.58;99497.20;4102583;84;21572;-82
2022/10/11 03:50:24;;;;;;;35.43;22.22;;;;;;;7.39;98.61;99499.94;4133346;84;21523;-82
2022/10/11 03:56:25;;;;;;;35.00;21.20;;;;;;;7.38;98.55;99493.68;4147335;84;20988;-83
2022/10/11 04:02:27;;;;;;;35.30;21.62;;;;;;;7.37;98.50;99502.20;4132671;84;21046;-83
2022/10/11 04:08:30;;;;;;;39.98;22.95;;;;;;;7.38;99.06;99502.41;4108968;84;21093;-84
2022/10/11 04:14:31;;;;;;;37.73;21.37;;;;;;;7.43;99.14;99499.46;4148354;84;21055;-83
2022/10/11 04:20:33;;;;;;;34.20;20.10;;;;;;;7.47;99.29;99505.24;4139362;84;20993;-83
2022/10/11 04:26:34;;;;;;;35.48;21.20;;;;;;;7.44;99.36;99512.73;4148970;84;21055;-83
2022/10/11 04:32:35;;;;;;;34.43;21.15;;;;;;;7.42;99.59;99515.00;4139640;84;21613;-82
2022/10/11 04:38:37;;;;;;;35.05;22.10;;;;;;;7.46;99.90;99519.20;4134743;84;21184;-83
2022/10/11 04:44:38;;;;;;;37.83;22.00;;;;;;;7.50;100.00;99522.27;4124600;84;21053;-85
2022/10/11 04:50:40;;;;;;;33.23;20.12;;;;;;;7.51;100.00;99518.98;4134531;83;21047;-83
2022/10/11 04:56:42;;;;;;;34.35;20.82;;;;;;;7.52;100.00;99518.64;4135953;84;21640;-83
2022/10/11 05:02:43;;;;;;;34.90;20.43;;;;;;;7.52;100.00;99528.17;4152465;84;20982;-83
2022/10/11 05:08:45;;;;;;;38.85;20.70;;;;;;;7.54;100.00;99532.72;4131421;84;21141;-83
2022/10/11 05:14:46;;;;;;;37.33;22.85;;;;;;;7.53;100.00;99538.52;4141756;84;20991;-83
2022/10/11 05:20:48;;;;;;;36.15;23.38;;;;;;;7.61;100.00;99541.10;4127805;84;20999;-84
2022/10/11 05:26:49;;;;;;;35.92;22.25;;;;;;;7.64;100.00;99548.59;4172995;83;21048;-82
2022/10/11 05:32:52;;;;;;;35.48;21.75;;;;;;;7.67;100.00;99556.08;4213774;82;22096;-83
2022/10/11 05:38:54;;;;;;;38.88;23.07;;;;;;;7.73;100.00;99573.81;4155999;84;21603;-83
2022/10/11 05:44:55;;;;;;;42.40;24.32;;;;;;;7.70;100.00;99579.14;4185307;83;22260;-83
2022/10/11 05:51:02;;;;;;;48.25;24.95;;;;;;;7.78;100.00;99580.38;4285597;81;21117;-83
2022/10/11 05:57:03;;;;;;;;;;;;;;;7.92;100.00;99587.63;4291133;81;21033;-83
2022/10/11 06:03:06;;;;;;;44.40;24.72;;;;;;;8.02;100.00;99596.49;4302607;81;20143;-83
2022/10/11 06:09:08;;;;;;;36.90;21.77;;;;;;;8.13;100.00;99607.93;4291560;81;21053;-83
2022/10/11 06:15:10;;;;;;;44.73;23.83;;;;;;;8.26;100.00;99608.73;4289497;81;21022;-84
2022/10/11 06:21:12;;;;;;;41.35;24.32;;;;;;;8.34;100.00;99615.98;4286192;81;21557;-83
2022/10/11 06:27:13;;;;;;;42.43;24.98;;;;;;;8.46;100.00;99615.39;4292864;81;20942;-83
2022/10/11 06:33:14;;;;;;;47.53;27.52;;;;;;;8.64;100.00;99627.63;4297273;80;21042;-83
2022/10/11 06:39:18;;;;;;;41.60;27.95;;;;;;;8.82;100.00;99627.54;4295621;80;21049;-84
2022/10/11 06:45:19;;;;;;;43.20;27.32;;;;;;;9.00;100.00;99637.03;4322597;80;21525;-82
2022/10/11 06:51:23;;;;;;;41.98;24.35;;;;;;;9.14;100.00;99640.14;4296980;81;21057;-83
2022/10/11 06:57:24;;;;;;;51.00;30.75;;;;;;;9.28;100.00;99654.74;4303951;80;21021;-83
2022/10/11 07:03:25;;;;;;;43.10;28.20;;;;;;;9.40;100.00;99660.92;4309178;80;21660;-83
2022/10/11 07:09:27;;;;;;;32.58;22.65;;;;;;;9.58;100.00;99664.69;4308073;80;20983;-83
2022/10/11 07:15:28;;;;;;;40.33;22.58;;;;;;;9.72;100.00;99667.22;4315279;80;21024;-84
2022/10/11 07:21:32;;;;;;;41.83;24.57;;;;;;;9.90;100.00;99671.16;4293078;81;21510;-83
2022/10/11 07:27:34;;;;;;;61.77;25.92;;;;;;;10.04;100.00;99685.78;4309701;80;21049;-84
2022/10/11 07:33:35;;;;;;;44.90;22.25;;;;;;;10.13;100.00;99691.88;4308303;80;21036;-81
2022/10/11 07:39:37;;;;;;;42.03;21.82;;;;;;;10.21;100.00;99705.95;4228989;81;48537;-84
2022/10/11 07:45:40;;;;;;;37.13;20.50;;;;;;;10.30;100.00;99710.65;4220103;81;21536;-83
2022/10/11 07:51:42;;;;;;;35.58;19.67;;;;;;;10.39;100.00;99709.88;4230149;82;21046;-84
2022/10/11 07:57:43;;;;;;;26.02;17.45;;;;;;;10.52;100.00;99711.36;4226536;82;21013;-84
2022/10/11 08:03:45;;;;;;;23.27;16.60;;;;;;;10.65;100.00;99719.09;4224526;82;21626;-84
2022/10/11 08:09:47;;;;;;;29.18;16.50;;;;;;;10.80;100.00;99724.30;4237858;82;21030;-84
2022/10/11 08:15:49;;;;;;;24.67;15.78;;;;;;;10.96;100.00;99734.04;4231217;82;21054;-85
2022/10/11 08:21:50;;;;;;;31.55;18.15;;;;;;;11.20;100.00;99732.97;4221961;82;21515;-83
2022/10/11 08:27:52;;;;;;;28.40;16.00;;;;;;;11.36;100.00;99734.25;4228276;82;21014;-84
2022/10/11 08:33:53;;;;;;;27.42;16.55;;;;;;;11.50;100.00;99734.52;4211066;82;21584;-84
2022/10/11 08:39:54;;;;;;;30.25;16.02;;;;;;;11.60;100.00;99742.98;4232697;82;21011;-84
2022/10/11 08:46:00;;;;;;;27.98;14.85;;;;;;;11.65;100.00;99739.94;4260300;82;21026;-84
2022/10/11 08:52:07;;;;;;;26.40;14.58;;;;;;;11.69;100.00;99736.70;4243165;82;21021;-83
2022/10/11 08:58:14;;;;;;;25.75;14.10;;;;;;;11.78;100.00;99746.86;4158397;84;20992;-84
2022/10/11 09:04:17;;;;;;;29.77;16.25;;;;;;;11.83;100.00;99745.76;4085031;85;20993;-84
2022/10/11 09:10:56;;;;;;;27.10;14.50;;;;;;;11.96;100.00;99740.31;4093070;85;21073;-84
2022/10/11 09:17:09;;;;;;;27.22;16.60;;;;;;;12.11;100.00;99742.13;4268308;82;20998;-83
2022/10/11 09:23:32;;;;;;;25.30;14.45;;;;;;;12.22;100.00;99748.02;4248366;82;21475;-83
2022/10/11 09:29:51;;;;;;;23.75;14.40;;;;;;;12.35;100.00;99741.75;4253647;82;21069;-84
2022/10/11 09:35:55;;;;;;;22.62;13.88;;;;;;;12.53;100.00;99735.94;4198846;82;22124;-84
2022/10/11 09:42:07;;;;;;;21.85;13.35;;;;;;;12.68;100.00;99743.81;4111023;84;21036;-86
2022/10/11 09:48:10;;;;;;;21.33;11.57;;;;;;;13.36;100.00;99755.37;4150021;84;21470;-85
2022/10/11 09:54:12;;;;;;;18.42;10.72;;;;;;;14.07;100.00;99749.42;4141417;84;21612;-84
2022/10/11 10:00:26;;;;;;;21.07;10.08;;;;;;;14.42;100.00;99755.27;4140011;84;21102;-84
2022/10/11 10:06:28;;;;;;;14.40;9.10;;;;;;;14.68;100.00;99746.78;4148466;84;21686;-85
2022/10/11 10:12:29;;;;;;;13.95;9.25;;;;;;;14.95;99.87;99754.23;4142982;84;21023;-85
2022/10/11 10:19:00;;;;;;;14.58;9.93;;;;;;;15.12;98.85;99759.84;4149573;84;21051;-84
2022/10/11 10:25:06;;;;;;;17.00;10.48;;;;;;;15.41;98.90;99755.28;4161445;84;21019;-85
2022/10/11 10:31:22;;;;;;;20.32;9.00;;;;;;;15.98;98.05;99756.19;4138240;84;21058;-85
2022/10/11 10:37:47;;;;;;;18.40;9.05;;;;;;;16.10;96.96;99756.60;4208883;82;21457;-85
2022/10/11 10:43:56;;;;;;;14.45;8.58;;;;;;;16.10;96.21;99763.51;4223197;82;20960;-84
2022/10/11 10:50:09;;;;;;;18.10;9.38;;;;;;;16.03;94.70;99771.00;4226024;82;20994;-83
2022/10/11 10:56:30;;;;;;;18.60;9.83;;;;;;;15.98;93.63;99770.00;4233351;82;21022;-85
2022/10/11 11:02:59;;;;;;;14.80;8.75;;;;;;;16.06;93.25;99775.73;4226857;82;21928;-84
2022/10/11 11:09:17;;;;;;;12.95;9.18;;;;;;;16.08;93.06;99771.42;4255711;82;20999;-85
2022/10/11 11:15:30;;;;;;;16.97;9.23;;;;;;;15.92;92.51;99773.75;4196558;82;20982;-85
2022/10/11 11:22:07;;;;;;;17.82;9.80;;;;;;;15.94;92.38;99774.16;4233322;82;21106;-84
2022/10/11 11:28:24;;;;;;;14.27;8.33;;;;;;;15.94;92.63;99780.27;4224959;82;21086;-85
2022/10/11 11:34:36;;;;;;;15.83;10.05;;;;;;;16.06;92.87;99771.59;4191171;82;21354;-84
2022/10/11 11:40:46;;;;;;;15.25;9.58;;;;;;;16.45;93.05;99769.67;4203595;84;21026;-85
2022/10/11 11:46:53;;;;;;;15.32;8.90;;;;;;;16.55;91.42;99769.66;4109557;85;21103;-84
2022/10/11 11:53:06;;;;;;;15.95;10.15;;;;;;;16.50;91.36;99770.66;4107933;85;21040;-85
2022/10/11 11:59:47;;;;;;;17.48;9.75;;;;;;;16.46;90.51;99771.27;4202580;83;21052;-86
2022/10/11 12:06:23;;;;;;;17.40;10.82;;;;;;;16.21;90.03;99773.97;4203128;83;21117;-87
2022/10/11 12:12:35;;;;;;;16.48;10.58;;;;;;;15.86;90.03;99782.80;4198117;83;21002;-84
2022/10/11 12:19:02;;;;;;;14.45;10.75;;;;;;;15.55;89.76;99781.55;4108294;85;21007;-84
2022/10/11 12:25:30;;;;;;;16.40;11.43;;;;;;;15.64;89.93;99780.58;4203065;83;21379;-85
2022/10/11 12:31:35;;;;;;;15.90;9.50;;;;;;;15.87;89.35;99789.31;4201973;83;20990;-85
2022/10/11 12:37:43;;;;;;;13.62;9.70;;;;;;;15.75;88.14;99792.45;4240381;82;21051;-84
2022/10/11 12:44:08;;;;;;;19.42;10.88;;;;;;;15.49;87.73;99794.11;4248625;82;21623;-84
2022/10/11 12:50:39;;;;;;;14.25;9.83;;;;;;;15.28;87.74;99797.56;4238364;82;21025;-84
2022/10/11 12:57:25;;;;;;;13.75;9.90;;;;;;;15.27;87.97;99802.85;4315950;82;21002;-84
2022/10/11 13:03:58;;;;;;;15.43;10.28;;;;;;;15.25;87.58;99808.56;4244110;82;21843;-83
2022/10/11 13:10:03;;;;;;;15.40;9.75;;;;;;;15.15;87.13;99818.94;4316411;82;20951;-85
2022/10/11 13:16:25;;;;;;;12.25;10.03;;;;;;;15.03;86.96;99829.72;4255055;82;21059;-85
2022/10/11 13:22:27;;;;;;;11.95;8.75;;;;;;;14.88;86.87;99834.92;4248575;82;21014;-84
2022/10/11 13:28:30;;;;;;;17.50;10.80;;;;;;;14.74;87.03;99839.52;4155940;84;21547;-84
2022/10/11 13:34:36;;;;;;;14.05;9.98;;;;;;;14.63;86.98;99838.07;4152168;84;21055;-84
2022/10/11 13:40:38;;;;;;;19.90;9.85;;;;;;;14.54;87.10;99840.36;4150304;84;21106;-84
2022/10/11 13:46:40;;;;;;;16.12;9.83;;;;;;;14.55;87.42;99832.30;4147317;84;21085;-85
2022/10/11 13:53:03;;;;;;;12.43;9.48;;;;;;;14.54;87.18;99843.70;4146728;84;21074;-84
2022/10/11 13:59:05;;;;;;;14.13;9.85;;;;;;;14.47;87.04;99834.78;4147550;84;21086;-84
2022/10/11 14:05:07;;;;;;;13.45;10.15;;;;;;;14.45;87.34;99836.34;4083953;85;21112;-84
2022/10/11 14:11:11;;;;;;;17.95;9.88;;;;;;;14.41;87.36;99836.30;4143440;84;21007;-84
2022/10/11 14:17:24;;;;;;;18.95;10.75;;;;;;;14.40;87.56;99836.11;4148058;84;21023;-84
2022/10/11 14:23:25;;;;;;;15.40;10.15;;;;;;;14.38;87.47;99836.27;4090465;85;21059;-85
2022/10/11 14:29:33;;;;;;;15.68;10.20;;;;;;;14.35;87.97;99838.41;4094860;85;20996;-84
2022/10/11 14:35:35;;;;;;;14.78;9.08;;;;;;;14.29;87.50;99836.59;4148102;84;21921;-84
2022/10/11 14:41:37;;;;;;;13.10;8.23;;;;;;;14.18;87.02;99846.11;4150948;85;20975;-84
2022/10/11 14:47:39;;;;;;;13.58;8.53;;;;;;;14.08;87.30;99836.34;4107740;85;21558;-84
2022/10/11 14:53:45;;;;;;;10.98;7.25;;;;;;;14.02;87.70;99831.77;4085050;85;21039;-84
2022/10/11 14:59:43;;;;;;;13.65;8.13;;;;;;;13.87;87.49;99840.26;4087332;85;21100;-84
2022/10/11 15:05:46;;;;;;;10.72;7.90;;;;;;;13.73;87.70;99835.36;4155628;84;21004;-83
2022/10/11 15:11:49;;;;;;;11.70;7.50;;;;;;;13.63;87.79;99839.38;4157179;84;21680;-85
2022/10/11 15:17:57;;;;;;;10.50;7.50;;;;;;;13.50;87.54;99842.95;4149889;84;21086;-84
2022/10/11 15:24:01;;;;;;;12.80;8.28;;;;;;;13.36;87.52;99843.36;4120577;84;21070;-84
2022/10/11 15:30:23;;;;;;;11.00;8.25;;;;;;;13.22;87.79;99851.39;4153659;84;21041;-84
2022/10/11 15:36:25;;;;;;;13.93;8.53;;;;;;;13.04;87.97;99861.36;4147216;84;22061;-84
2022/10/11 15:42:26;;;;;;;17.27;9.00;;;;;;;12.94;88.32;99865.49;4164054;84;21042;-84
2022/10/11 15:48:28;;;;;;;13.20;9.48;;;;;;;12.87;88.46;99868.15;4148391;84;21803;-83
2022/10/11 15:54:33;;;;;;;14.75;10.45;;;;;;;12.81;88.60;99873.72;4088637;85;21001;-85
2022/10/11 16:00:34;;;;;;;18.98;14.70;;;;;;;12.73;88.75;99874.80;4077692;86;20992;-83
2022/10/11 16:06:35;;;;;;;21.97;14.85;;;;;;;12.53;88.80;99882.86;4114662;85;21028;-84
2022/10/11 16:12:36;;;;;;;29.45;18.27;;;;;;;12.44;89.05;99892.73;4109438;85;21989;-84
2022/10/11 16:18:38;;;;;;;43.13;23.92;;;;;;;12.27;89.06;99897.33;4098282;85;21094;-83
2022/10/11 16:24:39;;;;;;;44.38;26.25;;;;;;;12.08;89.23;99896.55;4144683;84;21039;-84
2022/10/11 16:30:42;;;;;;;26.52;18.55;;;;;;;11.94;89.49;99909.42;4150367;84;21650;-83
2022/10/11 16:36:44;;;;;;;32.55;18.42;;;;;;;11.72;89.58;99903.85;4109182;85;20990;-83
2022/10/11 16:42:46;;;;;;;27.35;17.60;;;;;;;11.44;90.09;99904.59;4110576;85;22071;-83
2022/10/11 16:48:48;;;;;;;27.55;20.02;;;;;;;11.35;90.23;99909.48;4089029;85;21027;-83
2022/10/11 16:54:50;;;;;;;43.58;26.80;;;;;;;11.14;90.18;99912.53;4244143;82;21034;-84
2022/10/11 17:00:56;;;;;;;36.48;23.47;;;;;;;10.86;90.43;99920.08;4249385;82;21025;-83
2022/10/11 17:06:58;;;;;;;36.33;22.95;;;;;;;10.57;90.62;99922.67;4237990;82;21038;-83
2022/10/11 17:12:59;;;;;;;34.03;22.45;;;;;;;10.37;91.23;99928.38;4255285;82;21065;-82
2022/10/11 17:19:01;;;;;;;38.35;24.02;;;;;;;10.24;91.39;99928.25;4226540;82;20982;-83
2022/10/11 17:25:02;;;;;;;36.13;22.20;;;;;;;10.04;91.54;99930.00;4246577;82;21024;-83
2022/10/11 17:31:06;;;;;;;48.70;29.18;;;;;;;9.85;91.71;99941.38;4145405;84;21090;-83
2022/10/11 17:37:08;;;;;;;49.88;30.05;;;;;;;9.69;92.08;99941.31;4144261;83;21027;-83
2022/10/11 17:43:10;;;;;;;48.02;29.23;;;;;;;9.45;92.45;99939.98;4242297;82;20985;-84
2022/10/11 17:49:12;;;;;;;40.70;26.35;;;;;;;9.37;92.75;99943.64;4288460;83;20984;-83
2022/10/11 17:55:14;;;;;;;44.42;27.60;;;;;;;9.22;93.04;99945.72;4256561;82;21641;-84
2022/10/11 18:01:22;;;;;;;49.58;30.35;;;;;;;9.10;93.07;99951.98;4265146;82;21090;-84
2022/10/11 18:07:24;;;;;;;60.38;32.23;;;;;;;8.77;92.56;99963.56;4255102;82;21002;-83
2022/10/11 18:13:25;;;;;;;59.35;34.88;;;;;;;8.58;93.05;99967.39;4246879;82;21055;-83
2022/10/11 18:19:27;;;;;;;46.98;30.62;;;;;;;8.35;94.44;99962.11;4257017;82;21019;-83
2022/10/11 18:25:30;;;;;;;43.85;27.93;;;;;;;8.42;94.91;99968.39;4249414;82;21513;-83
2022/10/11 18:31:33;;;;;;;45.33;28.23;;;;;;;8.38;94.39;99972.94;4253900;82;21055;-83
2022/10/11 18:37:35;;;;;;;62.78;41.42;;;;;;;8.23;94.32;99978.45;4235070;82;20988;-85
2022/10/11 18:43:37;;;;;;;77.45;47.27;;;;;;;8.07;95.09;99984.81;4209758;84;20966;-83
2022/10/11 18:49:38;;;;;;;70.12;43.30;;;;;;;8.06;95.66;99988.68;4220891;82;21546;-83
2022/10/11 18:55:39;;;;;;;66.02;41.95;;;;;;;8.09;96.49;99990.18;4236020;82;21042;-83
2022/10/11 19:01:43;;;;;;;72.58;44.25;;;;;;;8.20;96.90;99991.92;4225763;82;22114;-82
2022/10/11 19:07:45;;;;;;;64.72;38.98;;;;;;;8.22;96.83;99988.30;4231954;82;21063;-84
2022/10/11 19:13:47;;;;;;;61.98;37.30;;;;;;;8.21;97.17;99992.95;4228824;82;20998;-83
2022/10/11 19:19:50;;;;;;;57.90;36.93;;;;;;;8.20;97.35;99996.81;4249555;82;20999;-83
2022/10/11 19:25:56;;;;;;;60.12;36.35;;;;;;;8.15;97.40;99987.47;4224226;82;21435;-83
2022/10/11 19:32:02;;;;;;;55.58;34.03;;;;;;;8.06;97.41;99988.13;4230938;82;21024;-83
2022/10/11 19:38:04;;;;;;;59.05;35.68;;;;;;;8.06;98.33;99995.50;4073465;84;21008;-83
2022/10/11 19:44:07;;;;;;;55.78;33.60;;;;;;;8.14;98.50;99998.72;4113701;84;21023;-83
2022/10/11 19:50:09;;;;;;;53.50;34.10;;;;;;;8.03;98.18;100002.42;4117433;84;21015;-84
2022/10/11 19:56:17;;;;;;;56.45;34.18;;;;;;;8.00;98.82;100007.19;4159704;84;21480;-84
2022/10/11 20:02:18;;;;;;;59.53;35.68;;;;;;;7.84;97.93;100006.19;4150110;84;20984;-84
2022/10/11 20:08:20;;;;;;;54.93;33.85;;;;;;;7.73;98.14;100010.43;4147222;84;21428;-84
2022/10/11 20:14:22;;;;;;;67.00;38.50;;;;;;;7.56;98.43;100010.55;4067179;86;21016;-84
2022/10/11 20:20:23;;;;;;;56.50;36.58;;;;;;;7.60;99.01;100005.47;4143038;84;21011;-84
2022/10/11 20:26:26;;;;;;;68.20;39.65;;;;;;;7.56;99.46;100014.05;4132064;84;21488;-84
2022/10/11 20:32:27;;;;;;;62.78;36.45;;;;;;;7.48;98.82;100015.48;4142027;84;21539;-84
2022/10/11 20:38:31;;;;;;;60.80;36.95;;;;;;;7.43;99.25;100017.84;4164940;84;21019;-84
2022/10/11 20:44:32;;;;;;;55.78;37.03;;;;;;;7.42;99.22;100018.17;4085764;85;21032;-84
2022/10/11 20:50:34;;;;;;;51.40;32.50;;;;;;;7.26;98.97;100023.94;4143916;84;21074;-84
2022/10/11 20:56:36;;;;;;;57.30;36.20;;;;;;;7.22;99.96;100023.78;4140981;84;21082;-84
2022/10/11 21:02:37;;;;;;;55.23;35.95;;;;;;;7.24;100.00;100031.07;4143905;84;21109;-84
2022/10/11 21:08:40;;;;;;;59.90;40.00;;;;;;;7.28;100.00;100028.50;4153203;84;21059;-84
2022/10/11 21:14:41;;;;;;;60.88;38.38;;;;;;;7.14;99.26;100025.98;4172667;84;21018;-84
2022/10/11 21:20:43;;;;;;;62.70;37.67;;;;;;;6.95;99.20;100019.35;4151048;84;21035;-84
2022/10/11 21:26:45;;;;;;;53.50;33.53;;;;;;;6.77;98.96;100024.05;4150665;84;21015;-84
2022/10/11 21:32:46;;;;;;;58.52;37.15;;;;;;;6.59;99.37;100027.95;4108848;84;21019;-84
2022/10/11 21:38:50;;;;;;;62.90;40.60;;;;;;;6.55;99.32;100032.42;4081064;84;21027;-84
2022/10/11 21:44:52;;;;;;;58.30;37.70;;;;;;;6.50;99.26;100032.59;4033257;86;21087;-85
2022/10/11 21:50:53;;;;;;;60.70;38.95;;;;;;;6.38;99.18;100038.70;4049224;86;20995;-84
2022/10/11 21:56:55;;;;;;;56.55;34.85;;;;;;;6.23;99.07;100033.73;4058130;87;21650;-84
2022/10/11 22:02:56;;;;;;;48.02;30.77;;;;;;;6.22;99.81;100035.42;4044862;86;21094;-84
2022/10/11 22:08:59;;;;;;;59.95;35.73;;;;;;;6.08;99.00;100037.50;4032441;86;21070;-85
2022/10/11 22:15:00;;;;;;;55.45;35.25;;;;;;;5.91;98.81;100038.31;4022988;86;21058;-84
2022/10/11 22:21:18;;;;;;;57.20;36.38;;;;;;;5.83;99.05;100028.78;4027256;86;21004;-84
2022/10/11 22:27:19;;;;;;;64.62;39.08;;;;;;;5.77;99.51;100034.91;4024251;86;21035;-84
2022/10/11 22:33:21;;;;;;;73.97;40.88;;;;;;;5.74;99.69;100028.77;3962716;88;21023;-84
2022/10/11 22:39:22;;;;;;;61.75;36.58;;;;;;;5.72;99.97;100033.70;4055081;84;22017;-84
2022/10/11 22:45:25;;;;;;;72.95;37.60;;;;;;;5.67;99.87;100031.71;4149566;84;21039;-84
2022/10/11 22:51:26;;;;;;;74.42;39.80;;;;;;;5.54;100.00;100032.64;4141968;84;21054;-83
2022/10/11 22:57:28;;;;;;;75.35;40.25;;;;;;;5.56;100.00;100034.48;4143686;84;21106;-84
2022/10/11 23:03:29;;;;;;;76.53;41.90;;;;;;;5.57;100.00;100038.24;4151213;84;21039;-83
2022/10/11 23:09:31;;;;;;;78.20;41.65;;;;;;;5.56;100.00;100040.70;4146606;84;21083;-84
2022/10/11 23:15:32;;;;;;;72.25;42.58;;;;;;;5.52;100.00;100043.81;4170554;85;21524;-84
2022/10/11 23:21:33;;;;;;;80.20;43.40;;;;;;;5.44;100.00;100038.35;4143318;84;21833;-84
2022/10/11 23:27:35;;;;;;;96.12;47.03;;;;;;;5.46;100.00;100033.41;4142010;84;21626;-84
2022/10/11 23:33:37;;;;;;;82.95;43.70;;;;;;;5.49;100.00;100045.00;4151981;84;21054;-85
2022/10/11 23:39:38;;;;;;;73.35;43.02;;;;;;;5.51;100.00;100038.13;4147190;84;21054;-84
2022/10/11 23:45:41;;;;;;;74.60;44.05;;;;;;;5.53;100.00;100039.20;4142633;84;21095;-84
2022/10/11 23:51:42;;;;;;;79.55;44.20;;;;;;;5.48;100.00;100040.12;4112991;85;21018;-84
2022/10/11 23:57:44;;;;;;;73.28;42.08;;;;;;;5.37;100.00;100041.52;4224321;82;21023;-86
